Sumner, Texas
Current Conditions -  °F | °C
As of 6:15 PM on Tuesday 25 Nov 2014 (Local Time) from KPRX Reporting Station
Clear Clear  
Wind Chill: 48°   Ceiling: Unl
Heat Index: 48°   Visibility: 10mi
Dew Point: 27°   Wind: 0mph
Humidity: 43%   Direction: NA
Pressure: 30.17"   Gusts: NA
Location:  33.74°N, 95.67°W
Report Text: KPRX 260015Z 00000KT 10SM CLR 09/M03 A3017 RMK AO1
Loading
Personal Weather Stations






























Interactive Weather Map New forecast layout! Learn more

10-Day Weather Forecast

Advertisements
Track Severe Weather on mobile